Time;durP1;ratioP1;P1;durP2;ratioP2;P2;SDS_P1;SDS_P2;PMS_P1;PMS_P2;Temp;Humidity;BMP_temperature;BMP_pressure;BME280_temperature;BME280_humidity;BME280_pressure;Samples;Min_cycle;Max_cycle;Signal;HPM_P1;HPM_P2
2023/03/02 00:02:00;;;;;;;12.70;6.60;;;;;;;1.04;67.48;99960.94;107680;1254;60562;-39
2023/03/02 00:04:52;;;;;;;13.30;6.40;;;;;;;1.00;67.40;99954.26;107620;1254;75029;-39
2023/03/02 00:07:30;;;;;;;14.50;7.30;;;;;;;0.96;67.34;99961.34;107513;1254;69951;-40
2023/03/02 00:10:00;;;;;;;13.00;6.20;;;;;;;0.93;67.43;99964.15;107633;1254;72180;-40
2023/03/02 00:12:29;;;;;;;13.20;6.50;;;;;;;0.89;67.55;99970.73;107599;1254;60451;-40
2023/03/02 00:14:58;;;;;;;12.40;6.00;;;;;;;0.85;67.47;99974.03;107651;1253;60220;-40
2023/03/02 00:17:27;;;;;;;13.20;5.90;;;;;;;0.88;67.68;99967.92;107642;1254;74567;-40
2023/03/02 00:20:08;;;;;;;10.40;5.50;;;;;;;0.93;67.57;99960.03;107558;1256;69922;-40
2023/03/02 00:22:39;;;;;;;11.60;5.30;;;;;;;0.93;67.53;99958.05;107568;1254;73802;-40
2023/03/02 00:25:08;;;;;;;16.20;5.80;;;;;;;0.92;67.40;99953.36;107575;1253;60571;-40
2023/03/02 00:27:36;;;;;;;14.00;5.70;;;;;;;0.91;67.24;99953.42;107603;1257;59871;-40
2023/03/02 00:30:08;;;;;;;10.10;4.80;;;;;;;0.90;67.36;99953.92;107569;1253;74754;-40
2023/03/02 00:32:36;;;;;;;12.70;5.90;;;;;;;0.89;67.14;99947.63;107531;1254;69754;-39
2023/03/02 00:35:06;;;;;;;16.40;6.30;;;;;;;0.85;67.16;99948.58;107544;1257;72979;-40
2023/03/02 00:37:37;;;;;;;10.50;5.00;;;;;;;0.83;67.25;99945.16;107596;1254;62085;-41
2023/03/02 00:40:08;;;;;;;9.60;5.40;;;;;;;0.83;67.41;99945.50;107599;1254;61486;-41
2023/03/02 00:42:36;;;;;;;10.70;4.70;;;;;;;0.88;67.17;99940.59;107602;1254;73412;-40
2023/03/02 00:45:06;;;;;;;8.10;3.70;;;;;;;0.87;66.88;99937.83;107595;1254;69796;-40
2023/03/02 00:47:35;;;;;;;10.20;4.80;;;;;;;0.84;67.09;99932.14;107568;1254;73676;-40
2023/03/02 00:50:04;;;;;;;11.50;5.10;;;;;;;0.74;66.99;99922.05;107553;1255;60882;-40
2023/03/02 00:52:36;;;;;;;14.90;5.10;;;;;;;0.81;67.31;99928.48;106685;1259;1003060;-40
2023/03/02 00:55:05;;;;;;;15.20;6.70;;;;;;;0.79;67.19;99921.39;107606;1254;74812;-40
2023/03/02 00:57:34;;;;;;;11.40;6.00;;;;;;;0.80;67.35;99928.60;107722;1257;69693;-40
2023/03/02 01:00:04;;;;;;;11.60;5.10;;;;;;;0.80;66.78;99928.82;107624;1254;73836;-40
2023/03/02 01:02:42;;;;;;;13.70;5.70;;;;;;;0.83;66.38;99926.86;107571;1254;62472;-40
2023/03/02 01:05:14;;;;;;;12.80;5.40;;;;;;;0.90;66.03;99928.88;107700;1256;61286;-40
2023/03/02 01:07:44;;;;;;;12.80;6.00;;;;;;;0.93;65.72;99927.68;107587;1254;75263;-40
2023/03/02 01:10:13;;;;;;;11.70;5.80;;;;;;;0.91;65.58;99928.98;107585;1253;69859;-40
2023/03/02 01:12:44;;;;;;;13.60;5.80;;;;;;;0.89;65.31;99929.73;107667;1256;72865;-40
2023/03/02 01:15:13;;;;;;;17.80;5.20;;;;;;;0.89;65.26;99928.52;107642;1252;60523;-40
2023/03/02 01:17:42;;;;;;;12.00;5.40;;;;;;;0.88;65.21;99924.26;107662;1254;60396;-40
2023/03/02 01:20:11;;;;;;;13.40;5.80;;;;;;;0.89;65.43;99923.34;107544;1252;75028;-40
2023/03/02 01:22:42;;;;;;;14.60;6.20;;;;;;;0.93;65.25;99919.94;107539;1254;69716;-40
2023/03/02 01:25:12;;;;;;;12.20;5.10;;;;;;;0.95;65.11;99916.30;107527;1257;72876;-40
2023/03/02 01:27:41;;;;;;;9.60;5.10;;;;;;;0.91;64.60;99912.95;107659;1256;60412;-40
2023/03/02 01:30:11;;;;;;;13.20;4.80;;;;;;;0.95;64.66;99907.30;107729;1252;61518;-40
2023/03/02 01:32:40;;;;;;;9.30;4.70;;;;;;;1.01;64.41;99900.75;107652;1256;74838;-40
2023/03/02 01:35:09;;;;;;;11.80;5.00;;;;;;;1.03;64.36;99900.50;107621;1254;68246;-40
2023/03/02 01:37:39;;;;;;;13.30;5.10;;;;;;;1.03;64.14;99895.75;107674;1254;73682;-40
2023/03/02 01:40:10;;;;;;;11.40;4.40;;;;;;;1.02;64.16;99900.03;107717;1257;60899;-40
2023/03/02 01:42:44;;;;;;;10.10;4.80;;;;;;;1.02;64.02;99893.58;107746;1256;61493;-40
2023/03/02 01:45:40;;;;;;;8.30;4.50;;;;;;;1.03;63.88;99891.52;107651;1254;74783;-40
2023/03/02 01:48:11;;;;;;;11.00;4.30;;;;;;;1.02;63.24;99892.83;107578;1254;69437;-40
2023/03/02 01:50:42;;;;;;;11.70;4.90;;;;;;;0.99;63.55;99896.60;107458;1254;205192;-40
2023/03/02 01:54:05;;;;;;;11.10;4.50;;;;;;;1.05;63.65;99894.71;104145;1293;601162;-40
2023/03/02 01:56:38;;;;;;;9.60;4.60;;;;;;;1.08;63.37;99897.02;106710;1264;60424;-39
2023/03/02 01:59:10;;;;;;;12.10;4.20;;;;;;;1.07;63.25;99901.16;106771;1265;61566;-39
2023/03/02 02:01:43;;;;;;;9.60;4.30;;;;;;;1.06;63.35;99898.91;107528;1254;72747;-40
2023/03/02 02:04:12;;;;;;;12.30;4.60;;;;;;;1.06;63.42;99898.28;107375;1254;69082;-40
2023/03/02 02:06:46;;;;;;;10.60;4.10;;;;;;;1.03;63.21;99894.58;107294;1252;200683;-40
2023/03/02 02:09:16;;;;;;;8.20;3.80;;;;;;;1.05;63.31;99886.91;107650;1251;60038;-40
2023/03/02 02:11:45;;;;;;;9.90;4.00;;;;;;;1.12;63.40;99881.98;107655;1251;61644;-40
2023/03/02 02:14:15;;;;;;;7.20;3.90;;;;;;;1.13;63.45;99882.84;107604;1251;73098;-40
2023/03/02 02:16:49;;;;;;;9.20;3.30;;;;;;;1.12;63.35;99885.30;107553;1251;69806;-40
2023/03/02 02:19:33;;;;;;;9.90;3.80;;;;;;;1.10;63.18;99889.60;107564;1251;71898;-40
2023/03/02 02:22:02;;;;;;;11.50;3.80;;;;;;;1.04;63.25;99893.66;107603;1251;60312;-40
2023/03/02 02:24:46;;;;;;;10.30;4.30;;;;;;;0.99;63.50;99892.48;107644;1251;61231;-40
2023/03/02 02:27:16;;;;;;;11.00;4.40;;;;;;;0.98;63.33;99890.63;107669;1251;73221;-40
2023/03/02 02:29:47;;;;;;;11.10;4.20;;;;;;;0.92;63.36;99885.92;106903;1251;1003699;-40
2023/03/02 02:32:17;;;;;;;10.50;4.40;;;;;;;0.86;63.46;99883.77;107687;1251;73797;-40
2023/03/02 02:35:07;;;;;;;10.00;4.50;;;;;;;0.80;63.66;99878.42;107719;1251;59621;-40
2023/03/02 02:37:41;;;;;;;10.30;4.90;;;;;;;0.70;64.02;99883.59;107718;1251;61539;-40
2023/03/02 02:40:16;;;;;;;10.30;4.90;;;;;;;0.59;64.26;99884.92;107637;1257;74060;-40
2023/03/02 02:42:47;;;;;;;12.40;5.00;;;;;;;0.53;64.59;99889.41;107685;1251;69950;-40
2023/03/02 02:45:22;;;;;;;;;;;;;;;0.53;64.70;99888.66;107695;1251;74796;-40
2023/03/02 02:47:52;;;;;;;12.60;5.50;;;;;;;0.43;65.06;99886.81;107649;1251;60812;-41
2023/03/02 02:50:30;;;;;;;16.30;5.70;;;;;;;0.32;65.45;99893.58;107662;1251;61249;-40
2023/03/02 02:53:03;;;;;;;10.70;4.80;;;;;;;0.29;65.71;99893.55;107523;1252;74686;-41
2023/03/02 02:55:31;;;;;;;12.30;4.70;;;;;;;0.24;65.88;99893.85;107664;1251;69921;-41
2023/03/02 02:58:01;;;;;;;10.10;4.60;;;;;;;0.20;66.09;99891.16;107607;1257;73640;-41
2023/03/02 03:00:30;;;;;;;13.30;5.20;;;;;;;0.12;66.35;99889.73;107659;1251;60801;-41
2023/03/02 03:03:04;;;;;;;9.60;5.20;;;;;;;0.04;66.74;99887.02;107625;1257;61516;-41
2023/03/02 03:05:32;;;;;;;11.90;4.40;;;;;;;-0.01;66.97;99883.91;107689;1253;74314;-41
2023/03/02 03:08:09;;;;;;;10.40;4.60;;;;;;;-0.01;67.20;99890.09;107534;1257;69981;-41
2023/03/02 03:10:38;;;;;;;11.00;5.00;;;;;;;-0.04;67.58;99885.25;107654;1251;73519;-45
2023/03/02 03:13:08;;;;;;;12.60;6.20;;;;;;;-0.13;67.86;99877.36;106669;1254;1003446;-40
2023/03/02 03:15:38;;;;;;;11.30;5.60;;;;;;;-0.19;68.13;99882.14;107554;1254;61321;-41
2023/03/02 03:18:08;;;;;;;12.70;5.00;;;;;;;-0.23;68.43;99877.48;107593;1254;72277;-40
2023/03/02 03:20:37;;;;;;;13.40;5.80;;;;;;;-0.25;68.52;99882.67;107607;1254;69579;-41
2023/03/02 03:23:05;;;;;;;11.80;4.70;;;;;;;-0.28;68.68;99885.66;107683;1254;73461;-41
2023/03/02 03:25:34;;;;;;;12.60;5.10;;;;;;;-0.26;68.66;99883.84;107727;1254;62069;-39
2023/03/02 03:28:03;;;;;;;10.80;5.30;;;;;;;-0.19;68.45;99883.54;107698;1254;61273;-39
2023/03/02 03:30:32;;;;;;;12.90;6.00;;;;;;;-0.16;68.57;99878.94;107697;1252;73040;-39
2023/03/02 03:33:01;;;;;;;13.30;5.80;;;;;;;-0.18;68.72;99878.67;107464;1254;69822;-39
2023/03/02 03:35:33;;;;;;;14.70;6.30;;;;;;;-0.19;68.92;99876.07;107631;1254;72597;-40
2023/03/02 03:38:01;;;;;;;12.90;6.00;;;;;;;-0.22;68.85;99879.02;107511;1257;60534;-39
2023/03/02 03:40:33;;;;;;;14.40;6.10;;;;;;;-0.28;69.10;99879.42;107672;1256;61519;-39
2023/03/02 03:43:02;;;;;;;14.90;6.00;;;;;;;-0.31;69.33;99879.02;106795;1253;1003493;-39
2023/03/02 03:45:36;;;;;;;14.50;6.20;;;;;;;-0.29;69.34;99879.01;104668;1253;1015672;-40
2023/03/02 03:48:05;;;;;;;12.00;5.50;;;;;;;-0.22;69.48;99876.14;107484;1253;73893;-40
2023/03/02 03:50:34;;;;;;;13.60;5.90;;;;;;;-0.17;69.33;99873.50;107514;1252;61232;-40
2023/03/02 03:53:03;;;;;;;16.90;6.40;;;;;;;-0.16;69.30;99872.33;107669;1252;60408;-39
2023/03/02 03:55:32;;;;;;;14.40;6.30;;;;;;;-0.15;69.20;99878.97;107628;1254;74212;-40
2023/03/02 03:58:00;;;;;;;14.20;6.40;;;;;;;-0.14;69.03;99875.83;107624;1254;68737;-39
2023/03/02 04:00:29;;;;;;;11.60;5.20;;;;;;;-0.14;68.97;99877.48;107712;1253;71777;-39
2023/03/02 04:03:02;;;;;;;13.90;6.00;;;;;;;-0.16;69.15;99876.10;107429;1254;60461;-40
2023/03/02 04:05:32;;;;;;;12.60;5.50;;;;;;;-0.18;69.20;99872.59;107332;1257;61226;-40
2023/03/02 04:08:02;;;;;;;14.30;5.30;;;;;;;-0.16;69.15;99875.20;107356;1254;73905;-40
2023/03/02 04:10:32;;;;;;;8.90;5.10;;;;;;;-0.11;69.05;99870.95;107501;1254;68532;-40
2023/03/02 04:13:01;;;;;;;17.10;5.50;;;;;;;-0.11;69.20;99863.86;107414;1253;73306;-40
2023/03/02 04:15:32;;;;;;;12.20;5.40;;;;;;;-0.06;69.17;99875.94;107358;1253;59692;-40
2023/03/02 04:18:01;;;;;;;10.50;5.30;;;;;;;-0.11;69.08;99882.32;107483;1253;61491;-40
2023/03/02 04:20:32;;;;;;;12.40;5.60;;;;;;;-0.15;69.20;99880.79;107456;1254;74060;-40
2023/03/02 04:23:00;;;;;;;13.00;5.60;;;;;;;-0.18;69.36;99881.12;107508;1253;69974;-41
2023/03/02 04:25:32;;;;;;;10.90;5.40;;;;;;;-0.20;69.36;99877.73;107477;1253;73003;-39
2023/03/02 04:28:06;;;;;;;11.50;5.00;;;;;;;-0.24;69.37;99878.71;107440;1253;61128;-39
2023/03/02 04:30:38;;;;;;;13.20;5.40;;;;;;;-0.24;69.70;99878.29;107445;1253;61363;-39
2023/03/02 04:33:06;;;;;;;10.00;5.90;;;;;;;-0.24;69.85;99874.67;107433;1253;74260;-39
2023/03/02 04:35:35;;;;;;;12.90;5.30;;;;;;;-0.26;70.09;99874.31;107526;1253;69574;-39
2023/03/02 04:38:04;;;;;;;14.50;5.90;;;;;;;-0.29;69.97;99878.74;107610;1254;73612;-39
2023/03/02 04:40:33;;;;;;;13.60;6.20;;;;;;;-0.34;70.46;99880.75;107527;1253;59772;-39
2023/03/02 04:43:01;;;;;;;9.90;4.90;;;;;;;-0.40;70.40;99884.61;107539;1253;61740;-39
2023/03/02 04:45:30;;;;;;;12.60;5.50;;;;;;;-0.45;70.63;99883.84;107510;1254;73965;-39
2023/03/02 04:47:59;;;;;;;7.80;4.30;;;;;;;-0.44;70.96;99887.27;107526;1254;69915;-39
2023/03/02 04:50:29;;;;;;;12.40;5.80;;;;;;;-0.44;71.07;99876.70;107469;1253;72656;-39
2023/03/02 04:52:58;;;;;;;15.50;5.50;;;;;;;-0.35;70.89;99888.37;107578;1254;60600;-39
2023/03/02 04:55:27;;;;;;;13.70;6.20;;;;;;;-0.37;71.31;99891.56;107591;1254;61456;-40
2023/03/02 04:57:55;;;;;;;11.60;5.60;;;;;;;-0.38;71.24;99894.93;107569;1256;71750;-40
2023/03/02 05:00:24;;;;;;;12.70;6.00;;;;;;;-0.40;71.48;99897.39;107633;1254;67677;-40
2023/03/02 05:02:52;;;;;;;15.20;5.60;;;;;;;-0.42;71.62;99898.77;107549;1254;73878;-40
2023/03/02 05:05:22;;;;;;;11.70;5.30;;;;;;;-0.39;71.79;99905.00;107500;1254;62369;-40
2023/03/02 05:07:51;;;;;;;13.90;6.10;;;;;;;-0.29;71.90;99902.45;107604;1254;61264;-40
2023/03/02 05:10:20;;;;;;;9.70;5.70;;;;;;;-0.24;71.92;99908.71;107517;1254;74236;-40
2023/03/02 05:13:01;;;;;;;13.40;5.60;;;;;;;-0.23;72.04;99909.30;107658;1253;69924;-40
2023/03/02 05:15:32;;;;;;;14.80;6.40;;;;;;;-0.24;72.20;99908.13;107602;1254;73900;-40
2023/03/02 05:18:03;;;;;;;12.10;6.10;;;;;;;-0.23;72.18;99913.23;107582;1254;60383;-40
2023/03/02 05:20:33;;;;;;;9.90;5.40;;;;;;;-0.22;72.35;99919.10;107573;1253;61576;-40
2023/03/02 05:23:07;;;;;;;17.40;6.30;;;;;;;-0.16;72.36;99921.57;107598;1254;74297;-39
2023/03/02 05:25:36;;;;;;;15.10;6.20;;;;;;;-0.09;72.48;99923.34;107582;1253;69915;-40
2023/03/02 05:28:05;;;;;;;15.90;6.70;;;;;;;-0.05;72.45;99925.12;107602;1254;73893;-40
2023/03/02 05:30:36;;;;;;;13.40;6.80;;;;;;;-0.03;72.30;99921.50;107587;1253;59783;-40
2023/03/02 05:33:05;;;;;;;18.90;6.60;;;;;;;-0.02;72.47;99922.55;107610;1254;61637;-40
2023/03/02 05:35:33;;;;;;;13.70;6.60;;;;;;;-0.02;72.46;99925.74;107590;1256;73071;-40
2023/03/02 05:38:03;;;;;;;15.70;6.20;;;;;;;0.05;72.50;99931.83;107575;1257;69731;-40
2023/03/02 05:40:33;;;;;;;16.00;7.50;;;;;;;0.12;72.21;99928.98;107396;1253;73585;-39
2023/03/02 05:43:02;;;;;;;16.90;6.60;;;;;;;0.15;72.35;99930.23;107506;1252;60896;-40
2023/03/02 05:45:33;;;;;;;17.80;7.50;;;;;;;0.17;72.18;99935.02;107590;1254;60713;-40
2023/03/02 05:48:02;;;;;;;15.80;7.70;;;;;;;0.19;72.23;99934.84;107420;1254;74335;-40
2023/03/02 05:50:31;;;;;;;16.00;7.40;;;;;;;0.18;72.48;99935.60;107476;1254;69668;-40
2023/03/02 05:53:01;;;;;;;13.00;6.30;;;;;;;0.24;72.47;99936.02;107460;1254;73868;-40
2023/03/02 05:55:30;;;;;;;18.60;5.20;;;;;;;0.34;72.38;99940.65;107465;1254;60667;-40
2023/03/02 05:57:58;;;;;;;19.90;8.20;;;;;;;0.36;72.26;99940.05;107459;1257;60206;-40
2023/03/02 06:00:27;;;;;;;17.10;7.60;;;;;;;0.36;72.35;99942.77;107371;1254;72970;-40
2023/03/02 06:02:56;;;;;;;18.40;7.70;;;;;;;0.37;72.37;99941.16;107373;1254;69950;-40
2023/03/02 06:05:24;;;;;;;16.30;7.30;;;;;;;0.41;72.52;99947.27;107439;1254;73612;-40
2023/03/02 06:07:57;;;;;;;13.90;7.10;;;;;;;0.49;72.49;99945.46;107434;1254;62731;-40
2023/03/02 06:10:26;;;;;;;18.00;7.70;;;;;;;0.57;72.35;99941.77;107471;1254;61339;-40
2023/03/02 06:12:55;;;;;;;14.80;7.40;;;;;;;0.62;72.37;99942.05;107431;1254;74995;-40
2023/03/02 06:15:28;;;;;;;15.00;8.00;;;;;;;0.54;72.49;99929.41;107435;1254;70012;-40
2023/03/02 06:17:56;;;;;;;16.60;7.20;;;;;;;0.64;72.46;99945.12;107431;1259;71684;-40
2023/03/02 06:20:25;;;;;;;16.00;6.60;;;;;;;0.64;72.42;99947.20;106680;1254;1003211;-40
2023/03/02 06:22:54;;;;;;;18.20;7.70;;;;;;;0.61;72.70;99934.11;107414;1254;61542;-40
2023/03/02 06:25:23;;;;;;;15.30;6.90;;;;;;;0.75;72.67;99942.41;107481;1254;75048;-40
2023/03/02 06:27:52;;;;;;;18.20;8.10;;;;;;;0.80;72.85;99943.55;107447;1254;69874;-40
2023/03/02 06:30:23;;;;;;;14.60;8.00;;;;;;;0.81;72.93;99941.41;107411;1254;72614;-40
2023/03/02 06:32:52;;;;;;;16.40;7.60;;;;;;;0.83;73.12;99939.15;107492;1254;60569;-40
2023/03/02 06:35:20;;;;;;;18.00;8.30;;;;;;;0.87;73.22;99939.36;107508;1254;61563;-40
2023/03/02 06:37:49;;;;;;;15.80;8.10;;;;;;;0.93;73.05;99938.09;107408;1254;74276;-40
2023/03/02 06:40:20;;;;;;;14.50;7.60;;;;;;;1.04;73.00;99938.98;107296;1254;69460;-40
2023/03/02 06:42:49;;;;;;;20.20;8.20;;;;;;;1.13;72.92;99944.83;107307;1258;73874;-39
2023/03/02 06:45:19;;;;;;;18.50;8.80;;;;;;;1.18;72.67;99940.67;107353;1254;60471;-39
2023/03/02 06:47:47;;;;;;;15.90;7.70;;;;;;;1.22;72.61;99939.52;107470;1254;61551;-40
2023/03/02 06:50:16;;;;;;;17.60;7.80;;;;;;;1.22;72.39;99939.56;107440;1254;74831;-40
2023/03/02 06:52:45;;;;;;;17.70;7.90;;;;;;;1.31;72.27;99933.44;107504;1254;69064;-40
2023/03/02 06:55:13;;;;;;;16.00;7.50;;;;;;;1.40;72.18;99925.99;107419;1254;72862;-40
2023/03/02 06:57:42;;;;;;;13.80;5.90;;;;;;;1.45;71.85;99928.45;107358;1257;60502;-40
2023/03/02 07:00:15;;;;;;;15.90;7.90;;;;;;;1.47;71.78;99925.98;107484;1254;61290;-39
2023/03/02 07:02:44;;;;;;;16.20;7.30;;;;;;;1.49;71.33;99926.50;107408;1255;75251;-39
2023/03/02 07:05:13;;;;;;;18.00;7.30;;;;;;;1.49;71.51;99926.38;107320;1254;69875;-39
2023/03/02 07:07:48;;;;;;;15.10;7.10;;;;;;;1.60;71.48;99929.30;107444;1254;73591;-39
2023/03/02 07:10:17;;;;;;;17.70;8.00;;;;;;;1.69;70.74;99927.77;107443;1254;60834;-39
2023/03/02 07:12:46;;;;;;;15.90;7.70;;;;;;;1.73;70.38;99927.25;107500;1254;61199;-39
2023/03/02 07:15:21;;;;;;;17.70;8.10;;;;;;;1.77;70.17;99929.23;106687;1254;1002857;-39
2023/03/02 07:17:49;;;;;;;21.30;8.10;;;;;;;1.80;69.85;99924.23;107475;1254;69869;-39
2023/03/02 07:20:18;;;;;;;16.50;7.40;;;;;;;1.84;69.77;99921.88;107463;1254;71352;-39
2023/03/02 07:22:48;;;;;;;16.50;7.40;;;;;;;1.94;69.60;99921.95;107394;1254;62451;-40
2023/03/02 07:25:17;;;;;;;14.50;7.00;;;;;;;2.06;68.97;99927.28;107427;1254;61564;-39
2023/03/02 07:27:48;;;;;;;14.20;7.10;;;;;;;2.16;68.07;99925.88;107457;1254;74849;-40
2023/03/02 07:30:20;;;;;;;15.40;6.90;;;;;;;2.23;67.90;99922.55;107500;1254;69887;-39
2023/03/02 07:32:48;;;;;;;13.40;6.80;;;;;;;2.31;67.36;99918.89;107463;1254;72864;-39
2023/03/02 07:35:17;;;;;;;12.90;7.00;;;;;;;2.40;67.73;99916.14;107484;1254;61233;-40
2023/03/02 07:37:46;;;;;;;18.60;7.10;;;;;;;2.52;67.04;99914.44;107479;1254;61648;-40
2023/03/02 07:40:14;;;;;;;17.40;6.70;;;;;;;2.69;66.10;99913.84;107498;1255;74783;-40
2023/03/02 07:42:43;;;;;;;14.30;6.60;;;;;;;2.85;65.20;99907.56;107429;1254;69981;-41
2023/03/02 07:45:15;;;;;;;13.30;6.70;;;;;;;2.96;64.63;99905.23;107444;1254;73562;-41
2023/03/02 07:47:44;;;;;;;12.80;5.70;;;;;;;3.08;64.36;99907.64;107498;1254;60419;-41
2023/03/02 07:50:12;;;;;;;13.30;6.10;;;;;;;3.21;63.42;99901.29;107455;1254;60847;-41
2023/03/02 07:52:41;;;;;;;13.40;6.20;;;;;;;3.34;62.19;99896.52;107505;1254;73796;-41
2023/03/02 07:55:10;;;;;;;12.10;5.90;;;;;;;3.47;61.75;99890.86;107456;1259;69939;-41
2023/03/02 07:57:38;;;;;;;11.40;6.00;;;;;;;3.62;61.49;99893.48;107465;1254;73859;-41
2023/03/02 08:00:08;;;;;;;16.10;5.80;;;;;;;3.78;60.80;99885.59;107435;1254;60777;-41
2023/03/02 08:02:40;;;;;;;16.40;5.40;;;;;;;3.94;59.99;99882.92;107475;1254;61339;-41
2023/03/02 08:05:09;;;;;;;8.60;5.00;;;;;;;4.08;59.51;99884.59;107357;1254;75064;-41
2023/03/02 08:07:39;;;;;;;15.40;5.30;;;;;;;4.24;58.87;99882.16;107353;1254;68933;-41
2023/03/02 08:10:10;;;;;;;9.30;5.20;;;;;;;4.40;58.29;99882.59;107334;1254;73715;-41
2023/03/02 08:12:39;;;;;;;10.50;5.60;;;;;;;4.54;57.38;99882.15;107377;1254;60605;-41
2023/03/02 08:15:08;;;;;;;10.40;4.70;;;;;;;4.66;57.14;99877.71;107397;1254;61498;-41
2023/03/02 08:17:37;;;;;;;12.60;5.40;;;;;;;4.80;56.71;99874.40;107412;1254;75071;-41
2023/03/02 08:20:07;;;;;;;;;;;;;;;4.96;56.96;99872.10;107518;1254;69086;-41
2023/03/02 08:22:36;;;;;;;15.50;6.50;;;;;;;5.13;56.10;99872.11;107442;1254;73911;-41
2023/03/02 08:25:06;;;;;;;13.50;5.60;;;;;;;5.31;55.14;99868.19;107407;1254;60313;-40
2023/03/02 08:27:34;;;;;;;;;;;;;;;5.49;54.64;99867.64;107494;1254;62398;-40
2023/03/02 08:30:03;;;;;;;12.20;5.20;;;;;;;5.63;54.10;99870.67;107408;1254;74271;-40
2023/03/02 08:32:33;;;;;;;;;;;;;;;5.77;53.15;99873.89;107394;1254;70049;-41
2023/03/02 08:35:02;;;;;;;12.80;5.30;;;;;;;5.82;52.92;99871.96;107503;1254;71481;-40
2023/03/02 08:37:31;;;;;;;13.10;5.70;;;;;;;5.86;52.62;99872.94;107497;1258;60644;-40
2023/03/02 08:40:00;;;;;;;11.60;4.40;;;;;;;5.92;52.54;99871.41;107501;1254;61461;-40
2023/03/02 08:42:28;;;;;;;10.90;5.00;;;;;;;6.01;52.41;99871.85;107506;1254;75015;-40
2023/03/02 08:44:57;;;;;;;8.10;4.30;;;;;;;6.16;51.67;99862.38;107534;1254;69941;-40
2023/03/02 08:47:28;;;;;;;12.80;5.50;;;;;;;6.24;51.14;99864.27;107494;1257;73932;-40
2023/03/02 08:49:56;;;;;;;10.50;4.70;;;;;;;6.34;51.39;99866.20;107462;1254;60994;-40
2023/03/02 08:52:24;;;;;;;9.10;4.30;;;;;;;6.51;51.03;99867.63;107461;1254;61525;-40
2023/03/02 08:54:53;;;;;;;10.60;5.10;;;;;;;6.73;50.66;99871.02;107484;1254;74807;-40
2023/03/02 08:57:22;;;;;;;9.50;5.30;;;;;;;6.92;50.39;99867.20;107512;1254;69901;-40
2023/03/02 08:59:51;;;;;;;9.20;4.50;;;;;;;7.12;48.94;99870.30;107485;1257;73895;-40
2023/03/02 09:02:19;;;;;;;8.00;4.50;;;;;;;7.23;48.59;99870.86;107476;1258;59767;-40
2023/03/02 09:04:48;;;;;;;10.70;5.00;;;;;;;7.32;48.31;99868.38;107519;1254;61365;-40
2023/03/02 09:07:18;;;;;;;9.90;4.80;;;;;;;7.42;48.21;99866.06;107472;1257;75127;-40
2023/03/02 09:09:47;;;;;;;7.90;4.20;;;;;;;7.62;47.97;99861.83;107479;1254;69586;-40
2023/03/02 09:12:16;;;;;;;9.70;4.80;;;;;;;7.83;46.95;99864.00;107494;1254;74042;-41
2023/03/02 09:14:46;;;;;;;8.40;4.70;;;;;;;7.95;45.72;99868.68;107458;1254;60522;-40
2023/03/02 09:17:19;;;;;;;9.60;4.70;;;;;;;7.98;45.50;99861.70;107462;1256;61423;-41
2023/03/02 09:19:47;;;;;;;12.40;4.70;;;;;;;8.05;45.41;99857.04;107537;1254;74868;-41
2023/03/02 09:22:16;;;;;;;8.10;3.90;;;;;;;8.05;44.18;99855.64;107487;1254;69921;-41
2023/03/02 09:24:44;;;;;;;8.90;4.20;;;;;;;7.99;44.35;99853.80;107452;1254;73347;-41
2023/03/02 09:27:13;;;;;;;11.60;4.40;;;;;;;8.02;44.85;99854.92;107429;1254;60788;-41
2023/03/02 09:29:42;;;;;;;7.80;4.10;;;;;;;8.16;45.20;99854.20;107484;1256;61606;-41
2023/03/02 09:32:12;;;;;;;9.70;4.20;;;;;;;8.42;44.85;99852.89;107507;1254;74931;-41
2023/03/02 09:34:40;;;;;;;6.90;4.30;;;;;;;8.64;44.31;99852.77;107493;1254;69403;-41
2023/03/02 09:37:09;;;;;;;8.60;4.70;;;;;;;8.82;43.63;99841.54;107407;1254;73128;-41
2023/03/02 09:39:38;;;;;;;12.90;5.20;;;;;;;8.98;43.53;99845.19;107479;1254;60715;-41
2023/03/02 09:42:09;;;;;;;10.40;5.20;;;;;;;9.19;43.12;99841.98;107475;1254;61973;-41
2023/03/02 09:45:10;;;;;;;11.20;5.50;;;;;;;9.35;44.15;99841.25;107470;1254;74000;-41
2023/03/02 09:47:54;;;;;;;10.20;5.30;;;;;;;9.43;43.50;99837.41;107451;1254;69883;-41
2023/03/02 09:50:26;;;;;;;10.00;6.20;;;;;;;9.39;42.92;99840.68;107511;1255;72593;-39
2023/03/02 09:53:40;;;;;;;11.40;6.50;;;;;;;9.25;43.19;99839.48;107434;1254;60832;-39
2023/03/02 09:56:14;;;;;;;11.20;6.10;;;;;;;9.24;43.83;99836.46;106894;1262;61649;-40
2023/03/02 09:58:58;;;;;;;;;;;;;;;9.14;43.71;99834.94;107401;1259;74786;-40
2023/03/02 10:01:40;;;;;;;11.10;5.40;;;;;;;8.98;44.58;99822.98;107447;1254;69466;-40
2023/03/02 10:04:30;;;;;;;11.00;5.70;;;;;;;9.15;43.83;99834.51;107454;1254;71472;-40
2023/03/02 10:07:10;;;;;;;11.40;5.80;;;;;;;9.29;43.16;99836.24;107485;1254;60479;-40
2023/03/02 10:09:39;;;;;;;10.70;5.80;;;;;;;9.25;43.28;99835.98;107311;1254;60351;-40
2023/03/02 10:12:41;;;;;;;13.00;6.70;;;;;;;9.13;44.23;99835.84;107486;1255;75127;-40
2023/03/02 10:15:16;;;;;;;10.70;6.50;;;;;;;8.92;44.84;99837.95;107500;1254;69670;-40
2023/03/02 10:17:51;;;;;;;11.40;6.60;;;;;;;8.71;44.74;99837.45;107454;1254;73882;-40
2023/03/02 10:20:26;;;;;;;9.60;5.80;;;;;;;8.60;45.02;99841.20;107438;1254;60757;-40
2023/03/02 10:23:27;;;;;;;11.90;6.60;;;;;;;8.55;45.36;99842.27;107299;1255;61564;-40
2023/03/02 10:26:24;;;;;;;12.50;6.10;;;;;;;8.54;45.36;99839.98;107424;1254;73550;-40
2023/03/02 10:28:59;;;;;;;12.50;6.90;;;;;;;8.56;45.18;99840.73;107463;1254;69951;-40
2023/03/02 10:31:30;;;;;;;15.00;7.50;;;;;;;8.62;46.84;99838.02;106545;1255;1002859;-40
2023/03/02 10:33:59;;;;;;;10.60;5.80;;;;;;;8.74;45.43;99834.72;107469;1259;60418;-40
2023/03/02 10:36:30;;;;;;;12.10;6.10;;;;;;;8.88;45.25;99827.37;107499;1255;61316;-40
2023/03/02 10:38:59;;;;;;;11.70;7.00;;;;;;;8.95;44.99;99832.85;107490;1257;74888;-40
2023/03/02 10:41:39;;;;;;;12.70;7.10;;;;;;;9.00;45.79;99835.27;107468;1254;68281;-40
2023/03/02 10:44:15;;;;;;;12.00;7.90;;;;;;;9.04;46.75;99833.40;107469;1258;72030;-40
2023/03/02 10:46:45;;;;;;;13.10;6.70;;;;;;;9.13;46.45;99833.30;107451;1254;60480;-40
2023/03/02 10:49:33;;;;;;;11.20;6.30;;;;;;;9.29;44.16;99833.64;107497;1258;59746;-40
2023/03/02 10:52:02;;;;;;;13.40;7.70;;;;;;;9.44;43.64;99815.85;107456;1257;74829;-40
2023/03/02 10:54:32;;;;;;;11.10;7.30;;;;;;;9.64;44.68;99820.23;107501;1257;69940;-40
2023/03/02 10:57:03;;;;;;;12.20;7.10;;;;;;;9.80;43.83;99819.48;107369;1255;73568;-40
2023/03/02 10:59:43;;;;;;;10.30;6.40;;;;;;;9.80;42.12;99818.95;107155;1257;61574;-40
2023/03/02 11:02:22;;;;;;;11.60;7.10;;;;;;;9.63;41.86;99818.30;107341;1254;60472;-40
2023/03/02 11:04:55;;;;;;;13.40;7.40;;;;;;;9.58;43.28;99818.92;107361;1255;74127;-41
2023/03/02 11:07:27;;;;;;;12.00;6.30;;;;;;;9.68;43.07;99818.04;107400;1256;67998;-41
2023/03/02 11:10:04;;;;;;;16.10;11.00;;;;;;;9.73;43.44;99820.36;107353;1254;73834;-41
2023/03/02 11:12:35;;;;;;;11.10;7.20;;;;;;;9.78;43.21;99822.98;107432;1255;61558;-41
2023/03/02 11:15:14;;;;;;;12.70;6.90;;;;;;;9.85;42.53;99818.17;107452;1257;61129;-41
2023/03/02 11:17:43;;;;;;;12.70;7.90;;;;;;;10.01;43.00;99817.86;107452;1254;74007;-41
2023/03/02 11:20:27;;;;;;;13.00;8.00;;;;;;;10.18;42.57;99813.09;107547;1254;68222;-40
2023/03/02 11:22:58;;;;;;;11.60;7.50;;;;;;;10.32;42.18;99809.90;107386;1257;72802;-43
2023/03/02 11:25:38;;;;;;;11.00;7.30;;;;;;;10.43;41.97;99805.94;107425;1256;61304;-41
2023/03/02 11:28:37;;;;;;;12.20;7.10;;;;;;;10.58;41.16;99800.98;107504;1254;61302;-41
2023/03/02 11:31:34;;;;;;;10.70;7.20;;;;;;;10.68;40.15;99802.48;107481;1256;75030;-42
2023/03/02 11:34:24;;;;;;;10.90;7.20;;;;;;;10.71;39.93;99797.45;107525;1255;69710;-40
2023/03/02 11:37:17;;;;;;;10.60;7.30;;;;;;;10.76;40.20;99802.25;107524;1255;72831;-40
2023/03/02 11:39:49;;;;;;;9.10;5.00;;;;;;;10.81;39.89;99797.56;107335;1256;61575;-40
2023/03/02 11:42:37;;;;;;;8.80;5.70;;;;;;;10.83;39.50;99797.45;107492;1256;60535;-40
2023/03/02 11:45:11;;;;;;;10.30;6.40;;;;;;;10.79;38.79;99789.06;107466;1256;74885;-40
2023/03/02 11:47:56;;;;;;;10.80;8.80;;;;;;;10.77;38.52;99782.17;107493;1257;69944;-40